sensor_id;sensor_type;location;lat;lon;timestamp;P1;durP1;ratioP1;P2;durP2;ratioP2
6207;SDS011;3137;51.550;7.060;2022-12-18T00:02:09;115.37;;;47.13;;
6207;SDS011;3137;51.550;7.060;2022-12-18T00:04:37;135.30;;;48.10;;
6207;SDS011;3137;51.550;7.060;2022-12-18T00:07:03;117.30;;;45.57;;
6207;SDS011;3137;51.550;7.060;2022-12-18T00:09:30;115.07;;;43.77;;
6207;SDS011;3137;51.550;7.060;2022-12-18T00:12:06;113.27;;;44.00;;
6207;SDS011;3137;51.550;7.060;2022-12-18T00:14:41;105.17;;;45.80;;
6207;SDS011;3137;51.550;7.060;2022-12-18T00:17:10;121.43;;;45.00;;
6207;SDS011;3137;51.550;7.060;2022-12-18T00:19:37;111.27;;;44.30;;
6207;SDS011;3137;51.550;7.060;2022-12-18T00:22:03;126.50;;;47.37;;
6207;SDS011;3137;51.550;7.060;2022-12-18T00:24:29;122.30;;;44.80;;
6207;SDS011;3137;51.550;7.060;2022-12-18T00:26:56;116.10;;;44.17;;
6207;SDS011;3137;51.550;7.060;2022-12-18T00:29:22;109.70;;;42.43;;
6207;SDS011;3137;51.550;7.060;2022-12-18T00:31:48;110.13;;;45.73;;
6207;SDS011;3137;51.550;7.060;2022-12-18T00:34:15;108.20;;;39.37;;
6207;SDS011;3137;51.550;7.060;2022-12-18T00:36:42;106.83;;;42.17;;
6207;SDS011;3137;51.550;7.060;2022-12-18T00:39:09;110.50;;;43.43;;
6207;SDS011;3137;51.550;7.060;2022-12-18T00:41:36;106.97;;;45.83;;
6207;SDS011;3137;51.550;7.060;2022-12-18T00:44:21;107.00;;;43.27;;
6207;SDS011;3137;51.550;7.060;2022-12-18T00:46:47;121.93;;;46.10;;
6207;SDS011;3137;51.550;7.060;2022-12-18T00:49:15;100.47;;;41.00;;
6207;SDS011;3137;51.550;7.060;2022-12-18T00:51:44;113.57;;;42.33;;
6207;SDS011;3137;51.550;7.060;2022-12-18T00:54:11;120.60;;;41.43;;
6207;SDS011;3137;51.550;7.060;2022-12-18T00:56:38;115.17;;;42.27;;
6207;SDS011;3137;51.550;7.060;2022-12-18T00:59:14;100.63;;;40.97;;
6207;SDS011;3137;51.550;7.060;2022-12-18T01:01:40;107.77;;;41.70;;
6207;SDS011;3137;51.550;7.060;2022-12-18T01:04:07;106.07;;;39.97;;
6207;SDS011;3137;51.550;7.060;2022-12-18T01:06:33;126.90;;;44.93;;
6207;SDS011;3137;51.550;7.060;2022-12-18T01:09:00;94.30;;;41.43;;
6207;SDS011;3137;51.550;7.060;2022-12-18T01:11:26;98.37;;;40.63;;
6207;SDS011;3137;51.550;7.060;2022-12-18T01:13:53;99.47;;;41.43;;
6207;SDS011;3137;51.550;7.060;2022-12-18T01:16:21;99.80;;;39.27;;
6207;SDS011;3137;51.550;7.060;2022-12-18T01:18:50;105.00;;;40.30;;
6207;SDS011;3137;51.550;7.060;2022-12-18T01:21:18;120.37;;;45.37;;
6207;SDS011;3137;51.550;7.060;2022-12-18T01:23:44;99.13;;;42.57;;
6207;SDS011;3137;51.550;7.060;2022-12-18T01:26:12;102.50;;;41.83;;
6207;SDS011;3137;51.550;7.060;2022-12-18T01:28:41;120.27;;;41.53;;
6207;SDS011;3137;51.550;7.060;2022-12-18T01:33:49;109.33;;;41.07;;
6207;SDS011;3137;51.550;7.060;2022-12-18T01:36:18;89.47;;;39.77;;
6207;SDS011;3137;51.550;7.060;2022-12-18T01:38:44;99.07;;;39.13;;
6207;SDS011;3137;51.550;7.060;2022-12-18T01:41:11;85.70;;;39.80;;
6207;SDS011;3137;51.550;7.060;2022-12-18T01:46:20;101.83;;;39.73;;
6207;SDS011;3137;51.550;7.060;2022-12-18T01:48:58;97.87;;;38.83;;
6207;SDS011;3137;51.550;7.060;2022-12-18T01:51:27;98.70;;;39.70;;
6207;SDS011;3137;51.550;7.060;2022-12-18T01:53:56;93.67;;;38.33;;
6207;SDS011;3137;51.550;7.060;2022-12-18T01:56:25;97.43;;;38.80;;
6207;SDS011;3137;51.550;7.060;2022-12-18T01:58:54;109.17;;;40.37;;
6207;SDS011;3137;51.550;7.060;2022-12-18T02:01:25;105.10;;;39.13;;
6207;SDS011;3137;51.550;7.060;2022-12-18T02:03:52;94.57;;;40.30;;
6207;SDS011;3137;51.550;7.060;2022-12-18T02:06:28;107.33;;;41.07;;
6207;SDS011;3137;51.550;7.060;2022-12-18T02:09:13;98.93;;;40.37;;
6207;SDS011;3137;51.550;7.060;2022-12-18T02:14:23;100.93;;;39.80;;
6207;SDS011;3137;51.550;7.060;2022-12-18T02:17:00;99.27;;;38.40;;
6207;SDS011;3137;51.550;7.060;2022-12-18T02:25:42;82.17;;;33.97;;
6207;SDS011;3137;51.550;7.060;2022-12-18T02:28:25;82.37;;;36.07;;
6207;SDS011;3137;51.550;7.060;2022-12-18T02:30:58;79.43;;;35.90;;
6207;SDS011;3137;51.550;7.060;2022-12-18T02:33:28;88.80;;;36.13;;
6207;SDS011;3137;51.550;7.060;2022-12-18T02:35:57;90.43;;;36.50;;
6207;SDS011;3137;51.550;7.060;2022-12-18T02:38:26;88.27;;;39.27;;
6207;SDS011;3137;51.550;7.060;2022-12-18T02:40:58;90.20;;;37.40;;
6207;SDS011;3137;51.550;7.060;2022-12-18T02:43:25;90.40;;;34.70;;
6207;SDS011;3137;51.550;7.060;2022-12-18T02:45:55;83.63;;;38.50;;
6207;SDS011;3137;51.550;7.060;2022-12-18T02:48:31;79.70;;;35.47;;
6207;SDS011;3137;51.550;7.060;2022-12-18T02:51:17;90.73;;;36.77;;
6207;SDS011;3137;51.550;7.060;2022-12-18T02:54:03;87.93;;;34.73;;
6207;SDS011;3137;51.550;7.060;2022-12-18T03:02:33;110.47;;;38.67;;
6207;SDS011;3137;51.550;7.060;2022-12-18T03:07:46;83.27;;;37.07;;
6207;SDS011;3137;51.550;7.060;2022-12-18T03:10:21;83.77;;;34.07;;
6207;SDS011;3137;51.550;7.060;2022-12-18T03:15:41;84.93;;;37.07;;
6207;SDS011;3137;51.550;7.060;2022-12-18T03:18:17;75.80;;;32.80;;
6207;SDS011;3137;51.550;7.060;2022-12-18T03:21:01;85.17;;;33.73;;
6207;SDS011;3137;51.550;7.060;2022-12-18T03:23:35;85.30;;;32.30;;
6207;SDS011;3137;51.550;7.060;2022-12-18T03:26:09;75.63;;;34.27;;
6207;SDS011;3137;51.550;7.060;2022-12-18T03:28:44;77.90;;;33.17;;
6207;SDS011;3137;51.550;7.060;2022-12-18T03:31:14;81.33;;;32.70;;
6207;SDS011;3137;51.550;7.060;2022-12-18T03:33:45;72.47;;;31.67;;
6207;SDS011;3137;51.550;7.060;2022-12-18T03:36:17;72.60;;;31.40;;
6207;SDS011;3137;51.550;7.060;2022-12-18T03:38:43;70.07;;;31.50;;
6207;SDS011;3137;51.550;7.060;2022-12-18T03:44:15;75.10;;;31.70;;
6207;SDS011;3137;51.550;7.060;2022-12-18T03:46:55;63.03;;;31.37;;
6207;SDS011;3137;51.550;7.060;2022-12-18T03:49:33;63.87;;;30.00;;
6207;SDS011;3137;51.550;7.060;2022-12-18T03:52:06;73.17;;;30.97;;
6207;SDS011;3137;51.550;7.060;2022-12-18T03:54:39;69.97;;;31.47;;
6207;SDS011;3137;51.550;7.060;2022-12-18T03:57:17;78.13;;;33.70;;
6207;SDS011;3137;51.550;7.060;2022-12-18T03:59:48;65.57;;;30.93;;
6207;SDS011;3137;51.550;7.060;2022-12-18T04:02:21;72.03;;;32.80;;
6207;SDS011;3137;51.550;7.060;2022-12-18T04:04:50;66.40;;;30.13;;
6207;SDS011;3137;51.550;7.060;2022-12-18T04:07:20;75.67;;;31.90;;
6207;SDS011;3137;51.550;7.060;2022-12-18T04:09:48;78.57;;;31.37;;
6207;SDS011;3137;51.550;7.060;2022-12-18T04:12:17;69.77;;;31.30;;
6207;SDS011;3137;51.550;7.060;2022-12-18T04:14:45;68.37;;;31.20;;
6207;SDS011;3137;51.550;7.060;2022-12-18T04:17:12;80.53;;;33.97;;
6207;SDS011;3137;51.550;7.060;2022-12-18T04:19:38;78.37;;;31.90;;
6207;SDS011;3137;51.550;7.060;2022-12-18T04:22:08;84.23;;;32.50;;
6207;SDS011;3137;51.550;7.060;2022-12-18T04:24:41;75.80;;;31.53;;
6207;SDS011;3137;51.550;7.060;2022-12-18T04:27:14;66.93;;;32.80;;
6207;SDS011;3137;51.550;7.060;2022-12-18T04:29:46;68.97;;;33.40;;
6207;SDS011;3137;51.550;7.060;2022-12-18T04:32:13;70.73;;;32.83;;
6207;SDS011;3137;51.550;7.060;2022-12-18T04:34:42;80.27;;;34.43;;
6207;SDS011;3137;51.550;7.060;2022-12-18T04:37:08;81.83;;;32.77;;
6207;SDS011;3137;51.550;7.060;2022-12-18T04:39:35;76.60;;;34.13;;
6207;SDS011;3137;51.550;7.060;2022-12-18T04:42:07;79.10;;;33.37;;
6207;SDS011;3137;51.550;7.060;2022-12-18T04:44:33;76.60;;;31.17;;
6207;SDS011;3137;51.550;7.060;2022-12-18T04:47:00;75.63;;;34.10;;
6207;SDS011;3137;51.550;7.060;2022-12-18T04:49:26;73.83;;;33.07;;
6207;SDS011;3137;51.550;7.060;2022-12-18T04:51:53;98.40;;;34.40;;
6207;SDS011;3137;51.550;7.060;2022-12-18T04:54:20;85.80;;;32.33;;
6207;SDS011;3137;51.550;7.060;2022-12-18T04:56:46;68.87;;;33.63;;
6207;SDS011;3137;51.550;7.060;2022-12-18T04:59:13;84.23;;;33.27;;
6207;SDS011;3137;51.550;7.060;2022-12-18T05:01:39;80.43;;;34.37;;
6207;SDS011;3137;51.550;7.060;2022-12-18T05:04:06;76.10;;;33.47;;
6207;SDS011;3137;51.550;7.060;2022-12-18T05:06:33;85.93;;;34.63;;
6207;SDS011;3137;51.550;7.060;2022-12-18T05:08:59;75.77;;;33.87;;
6207;SDS011;3137;51.550;7.060;2022-12-18T05:11:25;70.00;;;33.43;;
6207;SDS011;3137;51.550;7.060;2022-12-18T05:13:52;65.43;;;31.53;;
6207;SDS011;3137;51.550;7.060;2022-12-18T05:16:18;78.13;;;31.73;;
6207;SDS011;3137;51.550;7.060;2022-12-18T05:18:44;65.03;;;31.77;;
6207;SDS011;3137;51.550;7.060;2022-12-18T05:21:11;64.07;;;30.17;;
6207;SDS011;3137;51.550;7.060;2022-12-18T05:23:37;80.13;;;31.10;;
6207;SDS011;3137;51.550;7.060;2022-12-18T05:26:05;79.77;;;33.20;;
6207;SDS011;3137;51.550;7.060;2022-12-18T05:28:33;75.43;;;32.83;;
6207;SDS011;3137;51.550;7.060;2022-12-18T05:31:01;86.97;;;32.60;;
6207;SDS011;3137;51.550;7.060;2022-12-18T05:33:30;75.33;;;33.13;;
6207;SDS011;3137;51.550;7.060;2022-12-18T05:35:59;75.53;;;31.97;;
6207;SDS011;3137;51.550;7.060;2022-12-18T05:38:27;67.00;;;29.50;;
6207;SDS011;3137;51.550;7.060;2022-12-18T05:40:55;73.90;;;34.10;;
6207;SDS011;3137;51.550;7.060;2022-12-18T05:43:22;87.97;;;32.87;;
6207;SDS011;3137;51.550;7.060;2022-12-18T05:45:49;71.73;;;32.77;;
6207;SDS011;3137;51.550;7.060;2022-12-18T05:48:17;83.57;;;34.43;;
6207;SDS011;3137;51.550;7.060;2022-12-18T05:50:44;76.33;;;31.77;;
6207;SDS011;3137;51.550;7.060;2022-12-18T05:53:12;74.57;;;33.30;;
6207;SDS011;3137;51.550;7.060;2022-12-18T05:55:40;67.67;;;30.70;;
6207;SDS011;3137;51.550;7.060;2022-12-18T05:58:08;76.20;;;32.87;;
6207;SDS011;3137;51.550;7.060;2022-12-18T06:00:36;81.07;;;31.20;;
6207;SDS011;3137;51.550;7.060;2022-12-18T06:03:07;67.53;;;32.07;;
6207;SDS011;3137;51.550;7.060;2022-12-18T06:05:35;65.07;;;28.50;;
6207;SDS011;3137;51.550;7.060;2022-12-18T06:08:04;57.77;;;27.53;;
6207;SDS011;3137;51.550;7.060;2022-12-18T06:10:30;68.57;;;32.50;;
6207;SDS011;3137;51.550;7.060;2022-12-18T06:12:57;77.30;;;31.90;;
6207;SDS011;3137;51.550;7.060;2022-12-18T06:15:23;59.47;;;31.63;;
6207;SDS011;3137;51.550;7.060;2022-12-18T06:17:50;58.80;;;29.20;;
6207;SDS011;3137;51.550;7.060;2022-12-18T06:20:16;74.97;;;32.07;;
6207;SDS011;3137;51.550;7.060;2022-12-18T06:22:43;67.80;;;32.27;;
6207;SDS011;3137;51.550;7.060;2022-12-18T06:25:09;58.20;;;30.67;;
6207;SDS011;3137;51.550;7.060;2022-12-18T06:27:36;55.77;;;29.30;;
6207;SDS011;3137;51.550;7.060;2022-12-18T06:30:02;62.73;;;31.37;;
6207;SDS011;3137;51.550;7.060;2022-12-18T06:32:30;78.57;;;30.43;;
6207;SDS011;3137;51.550;7.060;2022-12-18T06:34:56;60.67;;;30.47;;
6207;SDS011;3137;51.550;7.060;2022-12-18T06:37:22;61.33;;;28.73;;
6207;SDS011;3137;51.550;7.060;2022-12-18T06:39:52;69.33;;;30.23;;
6207;SDS011;3137;51.550;7.060;2022-12-18T06:42:19;77.53;;;29.10;;
6207;SDS011;3137;51.550;7.060;2022-12-18T06:44:45;70.50;;;29.00;;
6207;SDS011;3137;51.550;7.060;2022-12-18T06:47:12;66.10;;;29.17;;
6207;SDS011;3137;51.550;7.060;2022-12-18T06:49:38;65.60;;;29.00;;
6207;SDS011;3137;51.550;7.060;2022-12-18T06:52:04;72.67;;;32.00;;
6207;SDS011;3137;51.550;7.060;2022-12-18T06:54:31;70.37;;;31.27;;
6207;SDS011;3137;51.550;7.060;2022-12-18T06:56:57;74.10;;;30.47;;
6207;SDS011;3137;51.550;7.060;2022-12-18T06:59:23;72.07;;;31.20;;
6207;SDS011;3137;51.550;7.060;2022-12-18T07:01:51;54.97;;;29.20;;
6207;SDS011;3137;51.550;7.060;2022-12-18T07:04:17;67.50;;;29.77;;
6207;SDS011;3137;51.550;7.060;2022-12-18T07:06:44;62.40;;;29.70;;
6207;SDS011;3137;51.550;7.060;2022-12-18T07:09:10;78.50;;;31.07;;
6207;SDS011;3137;51.550;7.060;2022-12-18T07:11:36;68.00;;;28.83;;
6207;SDS011;3137;51.550;7.060;2022-12-18T07:14:03;75.70;;;30.10;;
6207;SDS011;3137;51.550;7.060;2022-12-18T07:16:29;76.50;;;28.27;;
6207;SDS011;3137;51.550;7.060;2022-12-18T07:18:56;62.00;;;28.87;;
6207;SDS011;3137;51.550;7.060;2022-12-18T07:21:22;57.50;;;27.10;;
6207;SDS011;3137;51.550;7.060;2022-12-18T07:23:50;63.77;;;30.03;;
6207;SDS011;3137;51.550;7.060;2022-12-18T07:26:18;59.13;;;28.43;;
6207;SDS011;3137;51.550;7.060;2022-12-18T07:28:46;58.23;;;26.70;;
6207;SDS011;3137;51.550;7.060;2022-12-18T07:31:14;57.77;;;26.13;;
6207;SDS011;3137;51.550;7.060;2022-12-18T07:33:46;62.63;;;25.90;;
6207;SDS011;3137;51.550;7.060;2022-12-18T07:36:13;57.73;;;27.07;;
6207;SDS011;3137;51.550;7.060;2022-12-18T07:38:40;48.40;;;25.97;;
6207;SDS011;3137;51.550;7.060;2022-12-18T07:41:10;47.37;;;26.10;;
6207;SDS011;3137;51.550;7.060;2022-12-18T07:43:38;54.90;;;25.70;;
6207;SDS011;3137;51.550;7.060;2022-12-18T07:46:07;53.77;;;26.87;;
6207;SDS011;3137;51.550;7.060;2022-12-18T07:48:35;59.37;;;25.13;;
6207;SDS011;3137;51.550;7.060;2022-12-18T07:51:02;60.87;;;26.87;;
6207;SDS011;3137;51.550;7.060;2022-12-18T07:53:30;58.57;;;28.80;;
6207;SDS011;3137;51.550;7.060;2022-12-18T07:55:58;67.13;;;28.00;;
6207;SDS011;3137;51.550;7.060;2022-12-18T07:58:46;63.10;;;26.90;;
6207;SDS011;3137;51.550;7.060;2022-12-18T08:01:13;62.30;;;26.70;;
6207;SDS011;3137;51.550;7.060;2022-12-18T08:03:40;69.57;;;29.67;;
6207;SDS011;3137;51.550;7.060;2022-12-18T08:06:08;56.50;;;26.23;;
6207;SDS011;3137;51.550;7.060;2022-12-18T08:08:35;76.73;;;28.30;;
6207;SDS011;3137;51.550;7.060;2022-12-18T08:11:02;58.53;;;27.70;;
6207;SDS011;3137;51.550;7.060;2022-12-18T08:13:29;66.27;;;27.70;;
6207;SDS011;3137;51.550;7.060;2022-12-18T08:15:56;56.33;;;26.53;;
6207;SDS011;3137;51.550;7.060;2022-12-18T08:18:22;63.33;;;29.47;;
6207;SDS011;3137;51.550;7.060;2022-12-18T08:20:49;61.07;;;27.77;;
6207;SDS011;3137;51.550;7.060;2022-12-18T08:23:15;52.37;;;27.37;;
6207;SDS011;3137;51.550;7.060;2022-12-18T08:25:42;57.60;;;26.43;;
6207;SDS011;3137;51.550;7.060;2022-12-18T08:28:08;55.90;;;28.53;;
6207;SDS011;3137;51.550;7.060;2022-12-18T08:30:35;51.17;;;26.80;;
6207;SDS011;3137;51.550;7.060;2022-12-18T08:33:02;55.60;;;24.80;;
6207;SDS011;3137;51.550;7.060;2022-12-18T08:35:29;46.37;;;22.80;;
6207;SDS011;3137;51.550;7.060;2022-12-18T08:38:02;48.83;;;23.60;;
6207;SDS011;3137;51.550;7.060;2022-12-18T08:40:29;33.60;;;19.80;;
6207;SDS011;3137;51.550;7.060;2022-12-18T08:42:55;38.90;;;19.10;;
6207;SDS011;3137;51.550;7.060;2022-12-18T08:45:40;43.27;;;21.57;;
6207;SDS011;3137;51.550;7.060;2022-12-18T08:48:06;37.93;;;19.60;;
6207;SDS011;3137;51.550;7.060;2022-12-18T08:50:33;48.60;;;22.93;;
6207;SDS011;3137;51.550;7.060;2022-12-18T08:52:59;38.97;;;20.57;;
6207;SDS011;3137;51.550;7.060;2022-12-18T08:55:26;51.23;;;23.40;;
6207;SDS011;3137;51.550;7.060;2022-12-18T08:57:52;49.20;;;23.97;;
6207;SDS011;3137;51.550;7.060;2022-12-18T09:00:19;47.23;;;23.90;;
6207;SDS011;3137;51.550;7.060;2022-12-18T09:02:46;39.70;;;21.67;;
6207;SDS011;3137;51.550;7.060;2022-12-18T09:05:12;41.53;;;23.20;;
6207;SDS011;3137;51.550;7.060;2022-12-18T09:07:39;49.83;;;23.83;;
6207;SDS011;3137;51.550;7.060;2022-12-18T09:10:05;33.93;;;21.70;;
6207;SDS011;3137;51.550;7.060;2022-12-18T09:12:32;48.33;;;24.60;;
6207;SDS011;3137;51.550;7.060;2022-12-18T09:14:58;38.37;;;21.47;;
6207;SDS011;3137;51.550;7.060;2022-12-18T09:17:25;43.87;;;23.57;;
6207;SDS011;3137;51.550;7.060;2022-12-18T09:19:51;40.57;;;22.50;;
6207;SDS011;3137;51.550;7.060;2022-12-18T09:22:17;50.20;;;23.93;;
6207;SDS011;3137;51.550;7.060;2022-12-18T09:24:44;40.63;;;23.63;;
6207;SDS011;3137;51.550;7.060;2022-12-18T09:27:10;47.37;;;23.83;;
6207;SDS011;3137;51.550;7.060;2022-12-18T09:29:36;47.30;;;25.13;;
6207;SDS011;3137;51.550;7.060;2022-12-18T09:32:03;42.80;;;25.30;;
6207;SDS011;3137;51.550;7.060;2022-12-18T09:34:29;53.47;;;28.00;;
6207;SDS011;3137;51.550;7.060;2022-12-18T09:36:56;54.83;;;28.83;;
6207;SDS011;3137;51.550;7.060;2022-12-18T09:39:22;47.93;;;25.67;;
6207;SDS011;3137;51.550;7.060;2022-12-18T09:41:56;49.10;;;25.47;;
6207;SDS011;3137;51.550;7.060;2022-12-18T09:44:25;41.37;;;23.67;;
6207;SDS011;3137;51.550;7.060;2022-12-18T09:49:45;46.17;;;23.90;;
6207;SDS011;3137;51.550;7.060;2022-12-18T09:52:15;53.37;;;25.40;;
6207;SDS011;3137;51.550;7.060;2022-12-18T09:54:55;50.43;;;25.30;;
6207;SDS011;3137;51.550;7.060;2022-12-18T09:57:28;53.67;;;25.40;;
6207;SDS011;3137;51.550;7.060;2022-12-18T10:00:03;38.30;;;23.33;;
6207;SDS011;3137;51.550;7.060;2022-12-18T10:02:40;41.03;;;23.27;;
6207;SDS011;3137;51.550;7.060;2022-12-18T10:05:07;46.73;;;23.30;;
6207;SDS011;3137;51.550;7.060;2022-12-18T10:07:55;53.63;;;23.87;;
6207;SDS011;3137;51.550;7.060;2022-12-18T10:10:33;44.27;;;22.77;;
6207;SDS011;3137;51.550;7.060;2022-12-18T10:13:15;41.97;;;24.57;;
6207;SDS011;3137;51.550;7.060;2022-12-18T10:15:54;49.17;;;25.07;;
6207;SDS011;3137;51.550;7.060;2022-12-18T10:18:54;53.63;;;23.77;;
6207;SDS011;3137;51.550;7.060;2022-12-18T10:21:31;41.03;;;22.13;;
6207;SDS011;3137;51.550;7.060;2022-12-18T10:24:15;41.90;;;24.37;;
6207;SDS011;3137;51.550;7.060;2022-12-18T10:26:53;43.60;;;23.63;;
6207;SDS011;3137;51.550;7.060;2022-12-18T10:29:25;43.40;;;24.27;;
6207;SDS011;3137;51.550;7.060;2022-12-18T10:31:52;42.53;;;22.63;;
6207;SDS011;3137;51.550;7.060;2022-12-18T10:34:18;40.40;;;23.13;;
6207;SDS011;3137;51.550;7.060;2022-12-18T10:36:44;44.80;;;23.07;;
6207;SDS011;3137;51.550;7.060;2022-12-18T10:39:14;44.30;;;23.57;;
6207;SDS011;3137;51.550;7.060;2022-12-18T10:41:42;36.30;;;21.60;;
6207;SDS011;3137;51.550;7.060;2022-12-18T10:44:10;49.47;;;24.30;;
6207;SDS011;3137;51.550;7.060;2022-12-18T10:46:51;44.03;;;23.10;;
6207;SDS011;3137;51.550;7.060;2022-12-18T10:49:25;42.03;;;22.67;;
6207;SDS011;3137;51.550;7.060;2022-12-18T10:54:50;50.27;;;23.20;;
6207;SDS011;3137;51.550;7.060;2022-12-18T10:57:30;40.73;;;22.30;;
6207;SDS011;3137;51.550;7.060;2022-12-18T11:00:03;43.77;;;23.23;;
6207;SDS011;3137;51.550;7.060;2022-12-18T11:02:47;41.20;;;21.47;;
6207;SDS011;3137;51.550;7.060;2022-12-18T11:07:57;34.80;;;21.73;;
6207;SDS011;3137;51.550;7.060;2022-12-18T11:10:31;44.00;;;22.53;;
6207;SDS011;3137;51.550;7.060;2022-12-18T11:15:56;32.97;;;20.87;;
6207;SDS011;3137;51.550;7.060;2022-12-18T11:18:28;36.10;;;21.83;;
6207;SDS011;3137;51.550;7.060;2022-12-18T11:20:59;35.83;;;20.77;;
6207;SDS011;3137;51.550;7.060;2022-12-18T11:23:32;41.33;;;22.43;;
6207;SDS011;3137;51.550;7.060;2022-12-18T11:26:03;31.83;;;21.00;;
6207;SDS011;3137;51.550;7.060;2022-12-18T11:28:36;36.37;;;22.73;;
6207;SDS011;3137;51.550;7.060;2022-12-18T11:33:44;39.20;;;22.20;;
6207;SDS011;3137;51.550;7.060;2022-12-18T11:36:42;44.87;;;23.27;;
6207;SDS011;3137;51.550;7.060;2022-12-18T11:42:08;46.87;;;24.00;;
6207;SDS011;3137;51.550;7.060;2022-12-18T11:44:43;43.13;;;24.57;;
6207;SDS011;3137;51.550;7.060;2022-12-18T11:50:10;39.03;;;23.13;;
6207;SDS011;3137;51.550;7.060;2022-12-18T11:52:41;34.43;;;20.20;;
6207;SDS011;3137;51.550;7.060;2022-12-18T11:55:54;39.77;;;22.33;;
6207;SDS011;3137;51.550;7.060;2022-12-18T11:58:12;33.90;;;21.93;;
6207;SDS011;3137;51.550;7.060;2022-12-18T12:01:05;39.63;;;22.67;;
6207;SDS011;3137;51.550;7.060;2022-12-18T12:03:55;31.83;;;20.33;;
6207;SDS011;3137;51.550;7.060;2022-12-18T12:06:39;36.50;;;20.97;;
6207;SDS011;3137;51.550;7.060;2022-12-18T12:09:33;38.90;;;22.93;;
6207;SDS011;3137;51.550;7.060;2022-12-18T12:14:55;36.67;;;22.07;;
6207;SDS011;3137;51.550;7.060;2022-12-18T12:23:18;38.30;;;21.27;;
6207;SDS011;3137;51.550;7.060;2022-12-18T12:25:59;44.13;;;22.33;;
6207;SDS011;3137;51.550;7.060;2022-12-18T12:39:50;42.93;;;21.40;;
6207;SDS011;3137;51.550;7.060;2022-12-18T12:42:29;38.13;;;23.43;;
6207;SDS011;3137;51.550;7.060;2022-12-18T12:45:24;39.77;;;23.13;;
6207;SDS011;3137;51.550;7.060;2022-12-18T12:47:57;36.03;;;21.67;;
6207;SDS011;3137;51.550;7.060;2022-12-18T12:50:25;41.73;;;23.30;;
6207;SDS011;3137;51.550;7.060;2022-12-18T12:52:53;45.37;;;23.23;;
6207;SDS011;3137;51.550;7.060;2022-12-18T12:55:24;42.83;;;22.77;;
6207;SDS011;3137;51.550;7.060;2022-12-18T12:57:57;41.87;;;23.87;;
6207;SDS011;3137;51.550;7.060;2022-12-18T13:06:33;45.27;;;21.97;;
6207;SDS011;3137;51.550;7.060;2022-12-18T13:09:29;48.33;;;23.50;;
6207;SDS011;3137;51.550;7.060;2022-12-18T13:12:02;45.90;;;22.77;;
6207;SDS011;3137;51.550;7.060;2022-12-18T13:14:49;47.30;;;23.20;;
6207;SDS011;3137;51.550;7.060;2022-12-18T13:19:49;45.60;;;25.03;;
6207;SDS011;3137;51.550;7.060;2022-12-18T13:22:20;44.60;;;25.50;;
6207;SDS011;3137;51.550;7.060;2022-12-18T13:24:54;49.73;;;25.57;;
6207;SDS011;3137;51.550;7.060;2022-12-18T13:30:36;59.33;;;25.03;;
6207;SDS011;3137;51.550;7.060;2022-12-18T13:38:32;46.00;;;23.93;;
6207;SDS011;3137;51.550;7.060;2022-12-18T13:41:02;53.60;;;25.00;;
6207;SDS011;3137;51.550;7.060;2022-12-18T13:43:49;51.07;;;25.50;;
6207;SDS011;3137;51.550;7.060;2022-12-18T13:49:05;45.83;;;24.27;;
6207;SDS011;3137;51.550;7.060;2022-12-18T13:51:42;45.20;;;24.17;;
6207;SDS011;3137;51.550;7.060;2022-12-18T13:54:27;48.80;;;24.50;;
6207;SDS011;3137;51.550;7.060;2022-12-18T13:56:58;44.97;;;24.70;;
6207;SDS011;3137;51.550;7.060;2022-12-18T13:59:35;44.37;;;24.80;;
6207;SDS011;3137;51.550;7.060;2022-12-18T14:04:41;39.93;;;24.00;;
6207;SDS011;3137;51.550;7.060;2022-12-18T14:07:10;35.63;;;22.70;;
6207;SDS011;3137;51.550;7.060;2022-12-18T14:09:42;35.67;;;21.57;;
6207;SDS011;3137;51.550;7.060;2022-12-18T14:12:21;37.97;;;22.67;;
6207;SDS011;3137;51.550;7.060;2022-12-18T14:18:01;36.17;;;21.23;;
6207;SDS011;3137;51.550;7.060;2022-12-18T14:20:35;37.30;;;19.77;;
6207;SDS011;3137;51.550;7.060;2022-12-18T14:23:24;31.73;;;20.00;;
6207;SDS011;3137;51.550;7.060;2022-12-18T14:25:52;30.77;;;19.33;;
6207;SDS011;3137;51.550;7.060;2022-12-18T14:28:19;34.13;;;19.47;;
6207;SDS011;3137;51.550;7.060;2022-12-18T14:30:47;33.20;;;18.63;;
6207;SDS011;3137;51.550;7.060;2022-12-18T14:35:58;27.97;;;14.30;;
6207;SDS011;3137;51.550;7.060;2022-12-18T14:38:30;23.70;;;15.27;;
6207;SDS011;3137;51.550;7.060;2022-12-18T14:40:59;22.83;;;15.10;;
6207;SDS011;3137;51.550;7.060;2022-12-18T14:43:29;25.33;;;14.87;;
6207;SDS011;3137;51.550;7.060;2022-12-18T14:45:58;24.10;;;14.00;;
6207;SDS011;3137;51.550;7.060;2022-12-18T14:48:38;21.37;;;13.57;;
6207;SDS011;3137;51.550;7.060;2022-12-18T14:51:14;18.87;;;11.87;;
6207;SDS011;3137;51.550;7.060;2022-12-18T14:53:47;26.33;;;14.40;;
6207;SDS011;3137;51.550;7.060;2022-12-18T14:58:50;29.73;;;15.37;;
6207;SDS011;3137;51.550;7.060;2022-12-18T15:01:22;18.67;;;13.70;;
6207;SDS011;3137;51.550;7.060;2022-12-18T15:03:54;29.50;;;15.77;;
6207;SDS011;3137;51.550;7.060;2022-12-18T15:06:26;25.27;;;15.77;;
6207;SDS011;3137;51.550;7.060;2022-12-18T15:08:55;20.53;;;12.80;;
6207;SDS011;3137;51.550;7.060;2022-12-18T15:11:26;29.07;;;12.97;;
6207;SDS011;3137;51.550;7.060;2022-12-18T15:17:05;30.40;;;15.20;;
6207;SDS011;3137;51.550;7.060;2022-12-18T15:19:41;15.90;;;12.93;;
6207;SDS011;3137;51.550;7.060;2022-12-18T15:22:19;22.33;;;14.70;;
6207;SDS011;3137;51.550;7.060;2022-12-18T15:24:53;24.50;;;14.60;;
6207;SDS011;3137;51.550;7.060;2022-12-18T15:32:37;19.17;;;13.97;;
6207;SDS011;3137;51.550;7.060;2022-12-18T15:37:37;20.23;;;14.13;;
6207;SDS011;3137;51.550;7.060;2022-12-18T15:40:06;20.30;;;15.17;;
6207;SDS011;3137;51.550;7.060;2022-12-18T15:42:37;22.43;;;15.10;;
6207;SDS011;3137;51.550;7.060;2022-12-18T15:45:22;26.27;;;16.20;;
6207;SDS011;3137;51.550;7.060;2022-12-18T15:47:49;20.87;;;15.00;;
6207;SDS011;3137;51.550;7.060;2022-12-18T15:50:15;20.97;;;14.47;;
6207;SDS011;3137;51.550;7.060;2022-12-18T15:52:45;26.97;;;16.83;;
6207;SDS011;3137;51.550;7.060;2022-12-18T15:55:14;21.63;;;14.63;;
6207;SDS011;3137;51.550;7.060;2022-12-18T15:58:07;25.77;;;15.80;;
6207;SDS011;3137;51.550;7.060;2022-12-18T16:00:36;25.10;;;16.67;;
6207;SDS011;3137;51.550;7.060;2022-12-18T16:03:05;24.50;;;16.10;;
6207;SDS011;3137;51.550;7.060;2022-12-18T16:05:32;20.03;;;15.63;;
6207;SDS011;3137;51.550;7.060;2022-12-18T16:07:59;29.03;;;16.47;;
6207;SDS011;3137;51.550;7.060;2022-12-18T16:10:25;26.60;;;17.37;;
6207;SDS011;3137;51.550;7.060;2022-12-18T16:12:53;27.50;;;17.97;;
6207;SDS011;3137;51.550;7.060;2022-12-18T16:15:19;42.70;;;18.47;;
6207;SDS011;3137;51.550;7.060;2022-12-18T16:17:50;24.77;;;17.37;;
6207;SDS011;3137;51.550;7.060;2022-12-18T16:20:18;34.60;;;18.43;;
6207;SDS011;3137;51.550;7.060;2022-12-18T16:22:47;31.07;;;20.07;;
6207;SDS011;3137;51.550;7.060;2022-12-18T16:25:19;32.00;;;17.87;;
6207;SDS011;3137;51.550;7.060;2022-12-18T16:27:50;31.60;;;19.07;;
6207;SDS011;3137;51.550;7.060;2022-12-18T16:30:18;33.63;;;19.97;;
6207;SDS011;3137;51.550;7.060;2022-12-18T16:32:46;34.97;;;17.83;;
6207;SDS011;3137;51.550;7.060;2022-12-18T16:35:14;28.27;;;17.83;;
6207;SDS011;3137;51.550;7.060;2022-12-18T16:37:41;35.40;;;18.43;;
6207;SDS011;3137;51.550;7.060;2022-12-18T16:40:09;33.27;;;18.53;;
6207;SDS011;3137;51.550;7.060;2022-12-18T16:42:38;41.33;;;20.40;;
6207;SDS011;3137;51.550;7.060;2022-12-18T16:45:06;40.07;;;22.57;;
6207;SDS011;3137;51.550;7.060;2022-12-18T16:47:35;37.63;;;22.17;;
6207;SDS011;3137;51.550;7.060;2022-12-18T16:50:02;30.83;;;19.37;;
6207;SDS011;3137;51.550;7.060;2022-12-18T16:52:29;37.83;;;19.03;;
6207;SDS011;3137;51.550;7.060;2022-12-18T16:54:55;55.37;;;17.97;;
6207;SDS011;3137;51.550;7.060;2022-12-18T16:57:22;38.13;;;18.93;;